createdAt,value
2022-08-05T00:00:35.232Z,1006.41
2022-08-05T00:01:35.758Z,1006.40
2022-08-05T00:02:35.278Z,1006.35
2022-08-05T00:03:35.213Z,1006.35
2022-08-05T00:04:35.224Z,1006.35
2022-08-05T00:06:05.341Z,1006.35
2022-08-05T00:06:36.074Z,1006.34
2022-08-05T00:07:59.625Z,1006.34
2022-08-05T00:08:36.262Z,1006.29
2022-08-05T00:09:35.276Z,1006.28
2022-08-05T00:10:35.282Z,1006.27
2022-08-05T00:11:49.049Z,1006.28
2022-08-05T00:12:35.324Z,1006.20
2022-08-05T00:13:38.268Z,1006.22
2022-08-05T00:14:35.338Z,1006.23
2022-08-05T00:15:57.828Z,1006.20
2022-08-05T00:16:52.108Z,1006.20
2022-08-05T00:17:35.329Z,1006.15
2022-08-05T00:18:35.357Z,1006.20
2022-08-05T00:19:45.658Z,1006.22
2022-08-05T00:20:35.371Z,1006.21
2022-08-05T00:21:35.735Z,1006.21
2022-08-05T00:22:35.385Z,1006.24
2022-08-05T00:23:45.768Z,1006.26
2022-08-05T00:24:35.403Z,1006.20
2022-08-05T00:25:45.467Z,1006.18
2022-08-05T00:26:35.415Z,1006.17
2022-08-05T00:27:36.201Z,1006.16
2022-08-05T00:28:35.426Z,1006.15
2022-08-05T00:29:38.073Z,1006.17
2022-08-05T00:30:35.447Z,1006.17
2022-08-05T00:31:53.912Z,1006.14
2022-08-05T00:32:35.985Z,1006.11
2022-08-05T00:34:53.950Z,1006.15
2022-08-05T00:34:54.816Z,1006.11
2022-08-05T00:35:35.507Z,1006.16
2022-08-05T00:37:10.448Z,1006.17
2022-08-05T00:37:52.661Z,1006.16
2022-08-05T00:38:35.526Z,1006.20
2022-08-05T00:39:37.173Z,1006.20
2022-08-05T00:40:35.541Z,1006.25
2022-08-05T00:41:51.546Z,1006.27
2022-08-05T00:42:35.568Z,1006.25
2022-08-05T00:43:46.721Z,1006.29
2022-08-05T00:44:35.562Z,1006.31
2022-08-05T00:45:38.412Z,1006.33
2022-08-05T00:46:42.615Z,1006.31
2022-08-05T00:47:52.980Z,1006.32
2022-08-05T00:48:35.601Z,1006.33
2022-08-05T00:49:51.301Z,1006.37
2022-08-05T00:50:35.716Z,1006.41
2022-08-05T00:51:50.713Z,1006.49
2022-08-05T00:52:35.630Z,1006.60
2022-08-05T00:53:45.166Z,1006.64
2022-08-05T00:54:35.640Z,1006.56
2022-08-05T00:55:43.526Z,1006.46
2022-08-05T00:56:35.682Z,1006.38
2022-08-05T00:57:55.235Z,1006.37
2022-08-05T00:58:35.658Z,1006.37
2022-08-05T00:59:44.455Z,1006.43
2022-08-05T01:00:35.714Z,1006.55
2022-08-05T01:01:42.565Z,1006.58
2022-08-05T01:02:35.707Z,1006.56
2022-08-05T01:03:35.724Z,1006.45
2022-08-05T01:04:35.705Z,1006.43
2022-08-05T01:05:35.735Z,1006.46
2022-08-05T01:06:35.731Z,1006.44
2022-08-05T01:07:35.742Z,1006.45
2022-08-05T01:08:43.058Z,1006.42
2022-08-05T01:09:35.760Z,1006.44
2022-08-05T01:10:35.764Z,1006.48
2022-08-05T01:11:37.431Z,1006.51
2022-08-05T01:12:35.777Z,1006.48
2022-08-05T01:13:57.287Z,1006.50
2022-08-05T01:14:35.798Z,1006.54
2022-08-05T01:15:36.830Z,1006.56
2022-08-05T01:16:35.801Z,1006.61
2022-08-05T01:17:39.950Z,1006.65
2022-08-05T01:18:35.826Z,1006.63
2022-08-05T01:20:01.569Z,1006.60
2022-08-05T01:20:35.851Z,1006.55
2022-08-05T01:21:38.235Z,1006.53
2022-08-05T01:22:35.863Z,1006.51
2022-08-05T01:23:35.855Z,1006.56
2022-08-05T01:24:35.885Z,1006.53
2022-08-05T01:25:40.020Z,1006.54
2022-08-05T01:26:35.879Z,1006.56
2022-08-05T01:27:35.920Z,1006.58
2022-08-05T01:28:35.901Z,1006.63
2022-08-05T01:29:35.901Z,1006.68
2022-08-05T01:30:35.920Z,1006.76
2022-08-05T01:31:42.567Z,1006.74
2022-08-05T01:32:35.933Z,1006.58
2022-08-05T01:33:36.109Z,1006.54
2022-08-05T01:34:35.995Z,1006.51
2022-08-05T01:35:51.638Z,1006.47
2022-08-05T01:36:35.952Z,1006.50
2022-08-05T01:37:36.688Z,1006.49
2022-08-05T01:38:35.979Z,1006.54
2022-08-05T01:39:45.841Z,1006.58
2022-08-05T01:40:36.021Z,1006.59
2022-08-05T01:41:36.252Z,1006.60
2022-08-05T01:42:35.998Z,1006.52
2022-08-05T01:43:36.008Z,1006.43
2022-08-05T01:44:36.014Z,1006.42
2022-08-05T01:45:43.020Z,1006.46
2022-08-05T01:46:42.984Z,1006.59
2022-08-05T01:47:39.619Z,1006.62
2022-08-05T01:48:36.071Z,1006.59
2022-08-05T01:49:42.799Z,1006.53
2022-08-05T01:50:36.059Z,1006.49
2022-08-05T01:51:36.087Z,1006.45
2022-08-05T01:52:36.071Z,1006.44
2022-08-05T01:53:54.869Z,1006.47
2022-08-05T01:54:46.240Z,1006.46
2022-08-05T01:55:36.454Z,1006.55
2022-08-05T01:58:11.158Z,1006.57
2022-08-05T01:58:11.254Z,1006.52
2022-08-05T01:58:44.590Z,1006.45
2022-08-05T01:59:36.134Z,1006.34
2022-08-05T02:00:36.179Z,1006.31
2022-08-05T02:01:40.008Z,1006.31
2022-08-05T02:02:36.293Z,1006.33
2022-08-05T02:03:36.173Z,1006.36
2022-08-05T02:04:36.180Z,1006.38
2022-08-05T02:05:36.510Z,1006.43
2022-08-05T02:06:38.235Z,1006.43
2022-08-05T02:07:36.212Z,1006.39
2022-08-05T02:08:44.720Z,1006.34
2022-08-05T02:09:36.230Z,1006.33
2022-08-05T02:10:36.214Z,1006.29
2022-08-05T02:11:36.229Z,1006.32
2022-08-05T02:12:36.241Z,1006.34
2022-08-05T02:13:36.491Z,1006.41
2022-08-05T02:14:36.252Z,1006.36
2022-08-05T02:15:36.263Z,1006.40
2022-08-05T02:16:36.266Z,1006.38
2022-08-05T02:18:28.706Z,1006.33
2022-08-05T02:18:36.726Z,1006.32
2022-08-05T02:19:36.293Z,1006.27
2022-08-05T02:20:39.045Z,1006.29
2022-08-05T02:21:43.097Z,1006.32
2022-08-05T02:22:36.301Z,1006.31
2022-08-05T02:23:36.314Z,1006.31
2022-08-05T02:24:36.324Z,1006.34
2022-08-05T02:25:50.206Z,1006.36
2022-08-05T02:26:36.359Z,1006.37
2022-08-05T02:27:58.177Z,1006.41
2022-08-05T02:28:38.436Z,1006.37
2022-08-05T02:29:59.542Z,1006.37
2022-08-05T02:30:36.366Z,1006.41
2022-08-05T02:31:36.389Z,1006.37
2022-08-05T02:32:36.376Z,1006.40
2022-08-05T02:33:38.738Z,1006.42
2022-08-05T02:34:36.396Z,1006.43
2022-08-05T02:35:38.623Z,1006.44
2022-08-05T02:36:36.424Z,1006.45
2022-08-05T02:37:36.427Z,1006.49
2022-08-05T02:38:36.421Z,1006.47
2022-08-05T02:39:36.473Z,1006.46
2022-08-05T02:40:36.469Z,1006.40
2022-08-05T02:41:57.462Z,1006.36
2022-08-05T02:42:36.465Z,1006.34
2022-08-05T02:43:36.466Z,1006.37
2022-08-05T02:44:36.477Z,1006.34
2022-08-05T02:45:52.597Z,1006.34
2022-08-05T02:46:36.484Z,1006.34
2022-08-05T02:48:07.495Z,1006.32
2022-08-05T02:48:36.496Z,1006.32
2022-08-05T02:49:40.340Z,1006.39
2022-08-05T02:50:36.526Z,1006.36
2022-08-05T02:52:04.493Z,1006.32
2022-08-05T02:52:36.535Z,1006.34
2022-08-05T02:53:39.379Z,1006.31
2022-08-05T02:54:37.200Z,1006.32
2022-08-05T02:55:54.629Z,1006.30
2022-08-05T02:56:36.560Z,1006.28
2022-08-05T02:58:09.912Z,1006.30
2022-08-05T02:58:36.577Z,1006.27
2022-08-05T02:59:50.123Z,1006.27
2022-08-05T03:00:36.589Z,1006.23
2022-08-05T03:01:36.648Z,1006.21
2022-08-05T03:02:36.621Z,1006.22
2022-08-05T03:04:02.720Z,1006.20
2022-08-05T03:04:36.611Z,1006.19
2022-08-05T03:06:55.755Z,1006.20
2022-08-05T03:06:57.160Z,1006.16
2022-08-05T03:08:00.505Z,1006.14
2022-08-05T03:08:36.743Z,1006.17
2022-08-05T03:09:38.175Z,1006.18
2022-08-05T03:10:36.667Z,1006.20
2022-08-05T03:11:55.561Z,1006.18
2022-08-05T03:12:36.682Z,1006.19
2022-08-05T03:13:52.069Z,1006.14
2022-08-05T03:14:40.886Z,1006.12
2022-08-05T03:15:36.693Z,1006.07
2022-08-05T03:16:36.701Z,1006.10
2022-08-05T03:17:40.703Z,1006.04
2022-08-05T03:18:36.829Z,1006.02
2022-08-05T03:19:36.755Z,1005.99
2022-08-05T03:20:36.732Z,1005.99
2022-08-05T03:21:41.517Z,1006.02
2022-08-05T03:22:36.750Z,1006.01
2022-08-05T03:23:36.758Z,1006.01
2022-08-05T03:24:36.780Z,1005.98
2022-08-05T03:26:03.826Z,1005.94
2022-08-05T03:26:36.784Z,1005.93
2022-08-05T03:27:57.842Z,1005.97
2022-08-05T03:28:36.804Z,1006.02
2022-08-05T03:29:45.762Z,1005.99
2022-08-05T03:30:36.826Z,1006.00
2022-08-05T03:31:55.624Z,1005.97
2022-08-05T03:32:36.853Z,1005.98
2022-08-05T03:33:51.188Z,1006.04
2022-08-05T03:34:36.841Z,1006.10
2022-08-05T03:35:41.269Z,1006.13
2022-08-05T03:36:36.864Z,1006.14
2022-08-05T03:37:46.244Z,1006.13
2022-08-05T03:38:37.563Z,1006.12
2022-08-05T03:39:58.487Z,1006.13
2022-08-05T03:40:36.896Z,1006.12
2022-08-05T03:41:38.820Z,1006.12
2022-08-05T03:42:41.800Z,1006.09
2022-08-05T03:44:09.405Z,1006.10
2022-08-05T03:44:36.920Z,1006.11
2022-08-05T03:45:57.254Z,1006.13
2022-08-05T03:46:36.933Z,1006.15
2022-08-05T03:47:41.357Z,1006.20
2022-08-05T03:48:36.974Z,1006.17
2022-08-05T03:49:51.133Z,1006.17
2022-08-05T03:50:36.959Z,1006.16
2022-08-05T03:52:37.324Z,1006.19
2022-08-05T03:54:59.258Z,1006.15
2022-08-05T03:55:00.031Z,1006.13
2022-08-05T03:55:34.547Z,1006.18
2022-08-05T03:56:04.960Z,1006.18
2022-08-05T03:56:37.001Z,1006.14
2022-08-05T03:57:42.536Z,1006.21
2022-08-05T03:58:37.025Z,1006.25
2022-08-05T03:59:47.032Z,1006.29
2022-08-05T04:00:37.018Z,1006.26
2022-08-05T04:01:37.074Z,1006.31
2022-08-05T04:02:38.993Z,1006.32
2022-08-05T04:03:38.082Z,1006.34
2022-08-05T04:04:37.072Z,1006.36
2022-08-05T04:05:37.071Z,1006.39
2022-08-05T04:06:37.061Z,1006.38
2022-08-05T04:07:37.070Z,1006.36
2022-08-05T04:08:37.140Z,1006.35
2022-08-05T04:09:37.104Z,1006.32
2022-08-05T04:10:38.366Z,1006.32
2022-08-05T04:11:50.767Z,1006.28
2022-08-05T04:12:58.762Z,1006.28
2022-08-05T04:13:51.288Z,1006.24
2022-08-05T04:14:44.741Z,1006.25
2022-08-05T04:15:37.127Z,1006.25
2022-08-05T04:16:37.138Z,1006.18
2022-08-05T04:17:55.519Z,1006.15
2022-08-05T04:18:37.176Z,1006.13
2022-08-05T04:19:37.158Z,1006.20
2022-08-05T04:20:37.166Z,1006.15
2022-08-05T04:22:09.669Z,1006.18
2022-08-05T04:22:37.192Z,1006.22
2022-08-05T04:24:04.800Z,1006.20
2022-08-05T04:24:37.204Z,1006.21
2022-08-05T04:25:57.829Z,1006.26
2022-08-05T04:26:37.224Z,1006.27
2022-08-05T04:27:43.600Z,1006.29
2022-08-05T04:28:37.249Z,1006.29
2022-08-05T04:29:37.275Z,1006.37
2022-08-05T04:30:37.274Z,1006.36
2022-08-05T04:31:38.630Z,1006.38
2022-08-05T04:32:37.636Z,1006.40
2022-08-05T04:34:18.479Z,1006.40
2022-08-05T04:34:43.035Z,1006.45
2022-08-05T04:36:11.394Z,1006.44
2022-08-05T04:36:49.796Z,1006.52
2022-08-05T04:38:02.285Z,1006.50
2022-08-05T04:38:39.628Z,1006.53
2022-08-05T04:39:37.342Z,1006.51
2022-08-05T04:40:37.327Z,1006.53
2022-08-05T04:41:38.769Z,1006.52
2022-08-05T04:42:37.375Z,1006.51
2022-08-05T04:43:37.335Z,1006.49
2022-08-05T04:44:37.342Z,1006.56
2022-08-05T04:45:48.987Z,1006.55
2022-08-05T04:46:37.355Z,1006.55
2022-08-05T04:47:38.598Z,1006.53
2022-08-05T04:48:37.372Z,1006.53
2022-08-05T04:50:01.006Z,1006.53
2022-08-05T04:51:03.022Z,1006.52
2022-08-05T04:51:37.399Z,1006.50
2022-08-05T04:52:37.403Z,1006.52
2022-08-05T04:53:38.895Z,1006.49
2022-08-05T04:54:37.435Z,1006.48
2022-08-05T04:56:00.048Z,1006.48
2022-08-05T04:56:37.545Z,1006.49
2022-08-05T04:57:37.491Z,1006.48
2022-08-05T04:58:37.481Z,1006.50
2022-08-05T04:59:39.214Z,1006.52
2022-08-05T05:00:37.460Z,1006.54
2022-08-05T05:02:07.775Z,1006.50
2022-08-05T05:02:43.087Z,1006.47
2022-08-05T05:03:42.313Z,1006.52
2022-08-05T05:04:38.325Z,1006.51
2022-08-05T05:06:35.868Z,1006.53
2022-08-05T05:06:44.950Z,1006.53
2022-08-05T05:07:37.718Z,1006.50
2022-08-05T05:08:37.534Z,1006.53
2022-08-05T05:09:38.112Z,1006.50
2022-08-05T05:10:37.557Z,1006.50
2022-08-05T05:11:41.558Z,1006.54
2022-08-05T05:12:37.549Z,1006.57
2022-08-05T05:13:43.489Z,1006.55
2022-08-05T05:14:37.568Z,1006.54
2022-08-05T05:15:57.832Z,1006.54
2022-08-05T05:16:37.584Z,1006.62
2022-08-05T05:17:56.632Z,1006.64
2022-08-05T05:18:37.614Z,1006.65
2022-08-05T05:19:44.423Z,1006.65
2022-08-05T05:20:37.629Z,1006.67
2022-08-05T05:21:37.618Z,1006.74
2022-08-05T05:22:40.684Z,1006.75
2022-08-05T05:24:01.832Z,1006.77
2022-08-05T05:24:57.335Z,1006.79
2022-08-05T05:25:41.055Z,1006.81
2022-08-05T05:26:37.676Z,1006.90
2022-08-05T05:27:41.791Z,1006.95
2022-08-05T05:28:38.983Z,1006.97
2022-08-05T05:30:03.628Z,1007.08
2022-08-05T05:30:37.682Z,1007.17
2022-08-05T05:31:58.736Z,1007.23
2022-08-05T05:32:37.699Z,1007.24
2022-08-05T05:33:58.820Z,1007.30
2022-08-05T05:34:37.727Z,1007.31
2022-08-05T05:35:39.698Z,1007.28
2022-08-05T05:36:37.735Z,1007.26
2022-08-05T05:38:00.305Z,1007.15
2022-08-05T05:38:37.752Z,1007.06
2022-08-05T05:39:37.887Z,1007.05
2022-08-05T05:40:37.773Z,1007.04
2022-08-05T05:41:40.778Z,1006.99
2022-08-05T05:42:37.795Z,1007.04
2022-08-05T05:43:57.502Z,1006.99
2022-08-05T05:44:43.112Z,1006.98
2022-08-05T05:45:37.796Z,1007.04
2022-08-05T05:46:37.829Z,1007.04
2022-08-05T05:48:06.574Z,1007.06
2022-08-05T05:48:37.849Z,1007.07
2022-08-05T05:49:37.841Z,1007.10
2022-08-05T05:50:44.413Z,1007.12
2022-08-05T05:51:49.990Z,1007.18
2022-08-05T05:52:38.120Z,1007.26
2022-08-05T05:53:45.945Z,1007.30
2022-08-05T05:54:50.985Z,1007.45
2022-08-05T05:55:52.012Z,1007.52
2022-08-05T05:56:37.896Z,1007.68
2022-08-05T05:57:51.971Z,1007.73
2022-08-05T05:58:37.926Z,1007.81
2022-08-05T05:59:40.269Z,1007.85
2022-08-05T06:00:37.936Z,1007.81
2022-08-05T06:01:39.588Z,1007.82
2022-08-05T06:02:37.945Z,1007.77
2022-08-05T06:03:53.944Z,1007.67
2022-08-05T06:04:38.007Z,1007.71
2022-08-05T06:05:37.966Z,1007.67
2022-08-05T06:06:37.962Z,1007.68
2022-08-05T06:07:41.515Z,1007.73
2022-08-05T06:08:39.658Z,1007.79
2022-08-05T06:10:00.156Z,1007.81
2022-08-05T06:10:52.517Z,1007.95
2022-08-05T06:11:39.313Z,1007.90
2022-08-05T06:12:38.103Z,1008.00
2022-08-05T06:13:40.753Z,1008.00
2022-08-05T06:14:40.258Z,1007.99
2022-08-05T06:16:31.354Z,1008.00
2022-08-05T06:16:38.064Z,1008.04
2022-08-05T06:17:52.598Z,1008.15
2022-08-05T06:18:39.429Z,1008.19
2022-08-05T06:19:38.065Z,1008.18
2022-08-05T06:20:38.073Z,1008.22
2022-08-05T06:21:38.130Z,1008.20
2022-08-05T06:22:38.089Z,1008.20
2022-08-05T06:23:43.978Z,1008.18
2022-08-05T06:24:38.107Z,1008.14
2022-08-05T06:26:12.114Z,1008.18
2022-08-05T06:26:38.145Z,1008.15
2022-08-05T06:28:12.854Z,1008.09
2022-08-05T06:28:38.131Z,1008.05
2022-08-05T06:29:51.926Z,1008.04
2022-08-05T06:30:38.149Z,1008.00
2022-08-05T06:31:38.182Z,1008.02
2022-08-05T06:32:38.170Z,1007.94
2022-08-05T06:34:07.100Z,1007.89
2022-08-05T06:34:38.169Z,1007.86
2022-08-05T06:36:07.684Z,1007.88
2022-08-05T06:36:57.256Z,1007.86
2022-08-05T06:37:39.423Z,1007.86
2022-08-05T06:38:38.209Z,1007.89
2022-08-05T06:39:38.252Z,1007.90
2022-08-05T06:40:38.207Z,1007.85
2022-08-05T06:41:40.577Z,1007.89
2022-08-05T06:42:39.776Z,1007.97
2022-08-05T06:43:57.263Z,1007.95
2022-08-05T06:44:38.253Z,1008.01
2022-08-05T06:45:45.116Z,1008.04
2022-08-05T06:46:38.262Z,1008.08
2022-08-05T06:48:37.143Z,1008.06
2022-08-05T06:48:56.319Z,1008.10
2022-08-05T06:50:00.644Z,1008.07
2022-08-05T06:50:38.287Z,1008.09
2022-08-05T06:51:40.827Z,1008.04
2022-08-05T06:52:40.345Z,1008.01
2022-08-05T06:53:39.095Z,1008.00
2022-08-05T06:54:38.329Z,1007.98
2022-08-05T06:55:38.327Z,1007.95
2022-08-05T06:56:38.352Z,1007.93
2022-08-05T06:58:02.784Z,1007.83
2022-08-05T06:58:38.606Z,1007.88
2022-08-05T06:59:38.496Z,1007.80
2022-08-05T07:00:38.382Z,1007.79
2022-08-05T07:01:40.831Z,1007.79
2022-08-05T07:02:38.372Z,1007.82
2022-08-05T07:03:38.392Z,1007.93
2022-08-05T07:04:38.402Z,1007.94
2022-08-05T07:05:41.324Z,1007.99
2022-08-05T07:06:38.413Z,1008.02
2022-08-05T07:07:43.232Z,1008.04
2022-08-05T07:08:38.421Z,1008.03
2022-08-05T07:09:40.652Z,1008.09
2022-08-05T07:10:38.457Z,1008.08
2022-08-05T07:11:40.005Z,1008.09
2022-08-05T07:12:38.454Z,1008.13
2022-08-05T07:13:57.913Z,1008.11
2022-08-05T07:14:38.480Z,1008.21
2022-08-05T07:16:01.098Z,1008.22
2022-08-05T07:17:58.778Z,1008.45
2022-08-05T07:18:01.907Z,1008.28
2022-08-05T07:18:38.493Z,1008.39
2022-08-05T07:20:39.031Z,1008.47
2022-08-05T07:22:00.878Z,1008.46
2022-08-05T07:22:38.548Z,1008.51
2022-08-05T07:23:40.608Z,1008.51
2022-08-05T07:24:43.961Z,1008.43
2022-08-05T07:25:56.042Z,1008.45
2022-08-05T07:26:38.557Z,1008.41
2022-08-05T07:27:58.658Z,1008.36
2022-08-05T07:28:38.580Z,1008.40
2022-08-05T07:30:25.710Z,1008.41
2022-08-05T07:30:39.743Z,1008.35
2022-08-05T07:31:40.663Z,1008.41
2022-08-05T07:32:38.617Z,1008.39
2022-08-05T07:33:38.642Z,1008.44
2022-08-05T07:34:42.153Z,1008.48
2022-08-05T07:36:03.089Z,1008.40
2022-08-05T07:36:38.660Z,1008.41
2022-08-05T07:37:39.522Z,1008.37
2022-08-05T07:38:43.441Z,1008.34
2022-08-05T07:40:26.191Z,1008.32
2022-08-05T07:40:38.721Z,1008.24
2022-08-05T07:42:14.649Z,1008.24
2022-08-05T07:42:38.739Z,1008.27
2022-08-05T07:43:38.712Z,1008.32
2022-08-05T07:44:38.691Z,1008.34
2022-08-05T07:45:56.516Z,1008.40
2022-08-05T07:46:38.719Z,1008.40
2022-08-05T07:47:42.534Z,1008.37
2022-08-05T07:49:01.615Z,1008.34
2022-08-05T07:49:43.501Z,1008.28
2022-08-05T07:50:38.756Z,1008.21
2022-08-05T07:51:41.079Z,1008.18
2022-08-05T07:52:38.772Z,1008.13
2022-08-05T07:53:50.319Z,1008.08
2022-08-05T07:54:47.559Z,1008.13
2022-08-05T07:55:44.179Z,1008.14
2022-08-05T07:57:00.123Z,1008.17
2022-08-05T07:57:51.390Z,1008.23
2022-08-05T07:58:57.636Z,1008.29
2022-08-05T07:59:40.371Z,1008.27
2022-08-05T08:00:38.885Z,1008.29
2022-08-05T08:01:41.657Z,1008.28
2022-08-05T08:03:14.834Z,1008.23
2022-08-05T08:03:44.326Z,1008.18
2022-08-05T08:04:38.882Z,1008.14
2022-08-05T08:05:39.476Z,1008.13
2022-08-05T08:06:38.896Z,1008.16
2022-08-05T08:07:39.588Z,1008.19
2022-08-05T08:08:38.886Z,1008.28
2022-08-05T08:09:38.920Z,1008.31
2022-08-05T08:10:38.934Z,1008.30
2022-08-05T08:11:47.168Z,1008.28
2022-08-05T08:12:48.663Z,1008.26
2022-08-05T08:13:42.976Z,1008.23
2022-08-05T08:14:38.925Z,1008.19
2022-08-05T08:16:34.490Z,1008.12
2022-08-05T08:16:51.037Z,1008.03
2022-08-05T08:17:38.979Z,1007.91
2022-08-05T08:18:38.954Z,1007.87
2022-08-05T08:20:20.973Z,1007.76
2022-08-05T08:21:01.078Z,1007.69
2022-08-05T08:21:39.005Z,1007.64
2022-08-05T08:22:38.988Z,1007.60
2022-08-05T08:24:02.310Z,1007.67
2022-08-05T08:24:51.042Z,1007.76
2022-08-05T08:26:00.310Z,1007.85
2022-08-05T08:26:39.035Z,1007.92
2022-08-05T08:27:44.969Z,1008.03
2022-08-05T08:28:55.202Z,1008.13
2022-08-05T08:30:06.155Z,1008.18
2022-08-05T08:30:48.011Z,1008.18
2022-08-05T08:31:39.075Z,1008.27
2022-08-05T08:32:41.782Z,1008.32
2022-08-05T08:33:39.085Z,1008.38
2022-08-05T08:34:39.093Z,1008.42
2022-08-05T08:35:40.881Z,1008.51
2022-08-05T08:36:49.014Z,1008.48
2022-08-05T08:37:39.117Z,1008.55
2022-08-05T08:38:39.109Z,1008.61
2022-08-05T08:39:49.340Z,1008.62
2022-08-05T08:40:39.145Z,1008.58
2022-08-05T08:41:51.382Z,1008.62
2022-08-05T08:42:50.649Z,1008.57
2022-08-05T08:45:17.974Z,1008.43
2022-08-05T08:45:18.857Z,1008.52
2022-08-05T08:45:39.178Z,1008.40
2022-08-05T08:46:39.170Z,1008.42
2022-08-05T08:48:06.980Z,1008.40
2022-08-05T08:48:42.955Z,1008.40
2022-08-05T08:50:23.315Z,1008.44
2022-08-05T08:51:23.311Z,1008.53
2022-08-05T08:52:03.940Z,1008.62
2022-08-05T08:52:39.238Z,1008.64
2022-08-05T08:53:40.181Z,1008.71
2022-08-05T08:54:39.248Z,1008.70
2022-08-05T08:56:02.849Z,1008.73
2022-08-05T08:56:39.615Z,1008.75
2022-08-05T08:57:48.300Z,1008.78
2022-08-05T08:58:44.288Z,1008.81
2022-08-05T08:59:41.973Z,1008.87
2022-08-05T09:00:39.303Z,1008.88
2022-08-05T09:01:42.560Z,1008.87
2022-08-05T09:02:39.728Z,1008.87
2022-08-05T09:03:40.458Z,1008.86
2022-08-05T09:04:58.435Z,1008.80
2022-08-05T09:06:08.589Z,1008.80
2022-08-05T09:06:39.339Z,1008.75
2022-08-05T09:07:55.831Z,1008.78
2022-08-05T09:08:40.457Z,1008.79
2022-08-05T09:09:39.360Z,1008.79
2022-08-05T09:10:40.227Z,1008.84
2022-08-05T09:11:51.155Z,1008.85
2022-08-05T09:12:39.379Z,1008.89
2022-08-05T09:14:01.100Z,1008.95
2022-08-05T09:14:59.092Z,1008.94
2022-08-05T09:15:39.407Z,1009.00
2022-08-05T09:16:39.399Z,1009.03
2022-08-05T09:17:40.873Z,1009.04
2022-08-05T09:18:43.775Z,1009.06
2022-08-05T09:20:01.420Z,1009.11
2022-08-05T09:20:39.448Z,1009.14
2022-08-05T09:22:22.561Z,1009.08
2022-08-05T09:22:39.824Z,1009.11
2022-08-05T09:23:43.690Z,1009.08
2022-08-05T09:24:39.465Z,1009.06
2022-08-05T09:26:02.519Z,1009.03
2022-08-05T09:26:39.479Z,1009.04
2022-08-05T09:28:05.466Z,1009.06
2022-08-05T09:28:39.511Z,1009.06
2022-08-05T09:29:47.707Z,1009.11
2022-08-05T09:30:39.525Z,1009.16
2022-08-05T09:32:41.032Z,1009.14
2022-08-05T09:32:43.055Z,1009.22
2022-08-05T09:33:39.560Z,1009.24
2022-08-05T09:34:39.563Z,1009.23
2022-08-05T09:35:39.568Z,1009.14
2022-08-05T09:36:54.106Z,1009.10
2022-08-05T09:38:15.928Z,1009.08
2022-08-05T09:38:39.585Z,1009.09
2022-08-05T09:39:45.146Z,1009.13
2022-08-05T09:40:39.598Z,1009.10
2022-08-05T09:41:39.603Z,1009.18
2022-08-05T09:42:39.618Z,1009.13
2022-08-05T09:43:41.224Z,1009.11
2022-08-05T09:44:39.618Z,1009.03
2022-08-05T09:46:06.697Z,1008.97
2022-08-05T09:46:39.644Z,1008.88
2022-08-05T09:47:55.496Z,1008.78
2022-08-05T09:48:39.659Z,1008.65
2022-08-05T09:49:40.317Z,1008.68
2022-08-05T09:50:44.427Z,1008.65
2022-08-05T09:51:40.004Z,1008.62
2022-08-05T09:52:45.067Z,1008.65
2022-08-05T09:53:53.375Z,1008.61
2022-08-05T09:54:39.704Z,1008.61
2022-08-05T09:55:59.406Z,1008.63
2022-08-05T09:56:39.739Z,1008.59
2022-08-05T09:57:39.762Z,1008.52
2022-08-05T09:58:41.862Z,1008.50
2022-08-05T09:59:39.746Z,1008.46
2022-08-05T10:00:39.775Z,1008.47
2022-08-05T10:01:39.766Z,1008.43
2022-08-05T10:02:39.844Z,1008.39
2022-08-05T10:03:58.728Z,1008.33
2022-08-05T10:04:39.890Z,1008.27
2022-08-05T10:05:39.813Z,1008.19
2022-08-05T10:06:39.788Z,1008.14
2022-08-05T10:08:34.999Z,1008.12
2022-08-05T10:08:42.509Z,1008.21
2022-08-05T10:09:45.047Z,1008.30
2022-08-05T10:10:39.844Z,1008.30
2022-08-05T10:11:39.850Z,1008.32
2022-08-05T10:12:40.218Z,1008.30
2022-08-05T10:13:45.754Z,1008.32
2022-08-05T10:14:39.864Z,1008.29
2022-08-05T10:15:41.291Z,1008.40
2022-08-05T10:16:52.504Z,1008.56
2022-08-05T10:17:42.397Z,1008.72
2022-08-05T10:18:39.895Z,1008.78
2022-08-05T10:20:04.000Z,1008.77
2022-08-05T10:20:39.898Z,1008.65
2022-08-05T10:21:40.193Z,1008.55
2022-08-05T10:22:42.768Z,1008.54
2022-08-05T10:23:56.011Z,1008.60
2022-08-05T10:24:39.939Z,1008.68
2022-08-05T10:25:39.950Z,1008.76
2022-08-05T10:26:48.895Z,1008.88
2022-08-05T10:28:13.214Z,1008.95
2022-08-05T10:28:39.955Z,1009.07
2022-08-05T10:30:06.468Z,1009.12
2022-08-05T10:31:20.751Z,1009.18
2022-08-05T10:32:51.847Z,1009.28
2022-08-05T10:33:01.150Z,1009.23
2022-08-05T10:33:40.013Z,1009.27
2022-08-05T10:34:40.664Z,1009.26
2022-08-05T10:35:40.523Z,1009.28
2022-08-05T10:36:40.030Z,1009.30
2022-08-05T10:37:44.975Z,1009.29
2022-08-05T10:38:40.112Z,1009.26
2022-08-05T10:40:03.845Z,1009.14
2022-08-05T10:40:43.534Z,1009.02
2022-08-05T10:41:46.995Z,1008.92
2022-08-05T10:42:43.815Z,1008.91
2022-08-05T10:43:40.069Z,1008.88
2022-08-05T10:44:40.118Z,1008.83
2022-08-05T10:45:42.289Z,1008.86
2022-08-05T10:46:40.107Z,1008.88
2022-08-05T10:47:40.166Z,1008.89
2022-08-05T10:48:56.831Z,1008.86
2022-08-05T10:49:48.759Z,1008.87
2022-08-05T10:50:40.139Z,1008.92
2022-08-05T10:51:40.142Z,1008.98
2022-08-05T10:52:40.139Z,1009.00
2022-08-05T10:53:42.565Z,1009.00
2022-08-05T10:54:46.908Z,1009.00
2022-08-05T10:56:05.022Z,1009.00
2022-08-05T10:56:40.175Z,1008.96
2022-08-05T10:57:40.182Z,1008.87
2022-08-05T10:58:48.589Z,1008.87
2022-08-05T11:00:02.794Z,1008.79
2022-08-05T11:00:42.014Z,1008.73
2022-08-05T11:01:55.158Z,1008.67
2022-08-05T11:02:43.742Z,1008.63
2022-08-05T11:03:40.281Z,1008.59
2022-08-05T11:04:40.245Z,1008.58
2022-08-05T11:05:40.253Z,1008.65
2022-08-05T11:06:40.258Z,1008.64
2022-08-05T11:08:01.155Z,1008.65
2022-08-05T11:08:40.273Z,1008.75
2022-08-05T11:09:46.199Z,1008.66
2022-08-05T11:10:50.225Z,1008.65
2022-08-05T11:11:44.684Z,1008.68
2022-08-05T11:12:41.119Z,1008.84
2022-08-05T11:13:40.325Z,1008.87
2022-08-05T11:15:01.398Z,1008.83
2022-08-05T11:16:00.068Z,1009.09
2022-08-05T11:16:47.962Z,1008.95
2022-08-05T11:17:56.722Z,1009.10
2022-08-05T11:18:46.911Z,1009.24
2022-08-05T11:20:17.194Z,1009.27
2022-08-05T11:20:41.799Z,1009.21
2022-08-05T11:21:40.858Z,1009.35
2022-08-05T11:22:42.121Z,1009.35
2022-08-05T11:24:04.181Z,1009.20
2022-08-05T11:24:40.408Z,1009.28
2022-08-05T11:26:04.789Z,1009.38
2022-08-05T11:26:40.582Z,1009.39
2022-08-05T11:27:51.180Z,1009.34
2022-08-05T11:28:40.450Z,1009.13
2022-08-05T11:29:40.456Z,1009.11
2022-08-05T11:30:40.459Z,1009.14
2022-08-05T11:31:57.501Z,1009.20
2022-08-05T11:32:40.490Z,1009.21
2022-08-05T11:33:46.527Z,1009.19
2022-08-05T11:34:50.945Z,1009.21
2022-08-05T11:36:02.880Z,1009.22
2022-08-05T11:36:42.877Z,1009.24
2022-08-05T11:38:37.230Z,1009.27
2022-08-05T11:38:45.531Z,1009.36
2022-08-05T11:39:40.658Z,1009.37
2022-08-05T11:40:40.571Z,1009.29
2022-08-05T11:42:00.982Z,1009.38
2022-08-05T11:42:40.720Z,1009.34
2022-08-05T11:44:00.760Z,1009.38
2022-08-05T11:44:53.711Z,1009.27
2022-08-05T11:46:27.107Z,1009.32
2022-08-05T11:47:09.563Z,1009.29
2022-08-05T11:47:49.614Z,1009.22
2022-08-05T11:48:40.667Z,1009.20
2022-08-05T11:49:42.767Z,1009.14
2022-08-05T11:50:40.696Z,1009.18
2022-08-05T11:51:44.425Z,1009.12
2022-08-05T11:52:40.706Z,1009.15
2022-08-05T11:53:40.846Z,1009.21
2022-08-05T11:54:41.621Z,1009.25
2022-08-05T11:55:40.754Z,1009.19
2022-08-05T11:56:41.331Z,1009.16
2022-08-05T11:58:09.265Z,1009.10
2022-08-05T11:58:40.770Z,1009.15
2022-08-05T11:59:41.358Z,1009.19
2022-08-05T12:00:41.364Z,1009.18
2022-08-05T12:01:40.810Z,1009.14
2022-08-05T12:02:40.886Z,1009.11
2022-08-05T12:03:40.870Z,1009.11
2022-08-05T12:04:40.845Z,1009.10
2022-08-05T12:05:43.629Z,1009.14
2022-08-05T12:06:40.855Z,1009.13